Peru, Nebraska
Current Conditions -  °F | °C
As of 4:55 AM on Friday 24 Oct 2014 (Local Time) from KAFK Reporting Station
Haze Haze  
Wind Chill: 14°   Ceiling: Unl
Heat Index: 14°   Visibility: 2.5mi
Dew Point: 14°   Wind: 8mph
Humidity: 100%   Direction: 190°S
Pressure: 30"   Gusts: NA
Location:  40.47°N, 95.73°W
Report Text: KAFK 240955Z AUTO 19007KT 2 1/2SM BR SCT001 14/14 A3000 RMK AO2 T01350135
Loading
Personal Weather Stations






























Interactive Weather Map
Tropical Storm Tracking
New forecast layout! Learn more

10-Day Weather Forecast

Advertisements
Track Severe Weather on mobile